createdAt,value
2023-01-18T00:00:16.217Z,10.50
2023-01-18T00:02:46.861Z,15.82
2023-01-18T00:05:13.830Z,13.55
2023-01-18T00:07:40.278Z,13.00
2023-01-18T00:10:07.202Z,15.57
2023-01-18T00:12:33.732Z,14.02
2023-01-18T00:15:00.106Z,14.10
2023-01-18T00:17:26.509Z,12.52
2023-01-18T00:19:52.869Z,12.52
2023-01-18T00:22:19.274Z,12.50
2023-01-18T00:24:45.759Z,15.15
2023-01-18T00:27:12.191Z,10.80
2023-01-18T00:29:38.634Z,11.40
2023-01-18T00:32:05.526Z,11.88
2023-01-18T00:34:31.952Z,12.25
2023-01-18T00:36:58.350Z,10.60
2023-01-18T00:39:24.728Z,10.75
2023-01-18T00:42:10.651Z,9.98
2023-01-18T00:44:37.164Z,11.70
2023-01-18T00:47:03.574Z,11.43
2023-01-18T00:49:29.971Z,11.45
2023-01-18T00:51:58.715Z,11.93
2023-01-18T00:54:25.261Z,11.57
2023-01-18T00:56:51.626Z,11.63
2023-01-18T00:59:18.032Z,10.65
2023-01-18T01:01:45.384Z,12.63
2023-01-18T01:04:30.314Z,11.65
2023-01-18T01:06:56.854Z,9.98
2023-01-18T01:09:29.897Z,13.18
2023-01-18T01:12:16.494Z,14.65
2023-01-18T01:15:03.887Z,11.85
2023-01-18T01:17:51.205Z,11.30
2023-01-18T01:20:36.526Z,12.40
2023-01-18T01:23:34.355Z,13.00
2023-01-18T01:26:13.620Z,12.07
2023-01-18T01:28:43.431Z,11.95
2023-01-18T01:31:13.535Z,11.75
2023-01-18T01:33:40.659Z,10.85
2023-01-18T01:36:10.643Z,12.55
2023-01-18T01:38:37.259Z,11.88
2023-01-18T01:41:06.925Z,10.70
2023-01-18T01:43:45.350Z,14.27
2023-01-18T01:46:43.004Z,10.15
2023-01-18T01:49:32.789Z,17.73
2023-01-18T01:52:08.930Z,12.85
2023-01-18T01:54:50.329Z,11.05
2023-01-18T01:57:30.545Z,10.30
2023-01-18T02:00:04.701Z,12.18
2023-01-18T02:02:33.508Z,13.23
2023-01-18T02:05:01.039Z,13.52
2023-01-18T02:07:28.838Z,11.40
2023-01-18T02:09:57.168Z,13.95
2023-01-18T02:12:25.017Z,15.73
2023-01-18T02:14:52.811Z,14.50
2023-01-18T02:17:40.663Z,13.73
2023-01-18T02:20:32.529Z,11.27
2023-01-18T02:23:07.191Z,11.57
2023-01-18T02:25:52.518Z,13.75
2023-01-18T02:28:56.980Z,13.35
2023-01-18T02:31:26.983Z,13.55
2023-01-18T02:34:13.514Z,14.00
2023-01-18T02:36:53.173Z,12.88
2023-01-18T02:39:38.421Z,14.45
2023-01-18T02:42:31.580Z,15.25
2023-01-18T02:45:18.914Z,14.00
2023-01-18T02:47:46.341Z,14.15
2023-01-18T02:50:23.003Z,15.43
2023-01-18T02:52:51.319Z,12.95
2023-01-18T02:55:23.223Z,15.13
2023-01-18T02:57:49.640Z,14.23
2023-01-18T03:00:19.099Z,13.77
2023-01-18T03:02:48.130Z,15.30
2023-01-18T03:05:14.627Z,13.98
2023-01-18T03:07:58.758Z,15.18
2023-01-18T03:11:01.929Z,18.60
2023-01-18T03:13:41.435Z,14.75
2023-01-18T03:16:14.218Z,13.63
2023-01-18T03:19:03.089Z,13.32
2023-01-18T03:21:56.712Z,12.57
2023-01-18T03:24:23.483Z,11.77
2023-01-18T03:26:54.653Z,12.32
2023-01-18T03:29:41.173Z,12.82
2023-01-18T03:32:33.968Z,12.88
2023-01-18T03:35:14.653Z,11.32
2023-01-18T03:37:43.872Z,13.75
2023-01-18T03:40:13.822Z,13.70
2023-01-18T03:42:48.486Z,12.65
2023-01-18T03:45:29.862Z,13.90
2023-01-18T03:47:56.296Z,13.38
2023-01-18T03:50:28.521Z,13.15
2023-01-18T03:52:59.366Z,12.77
2023-01-18T03:55:43.523Z,13.82
2023-01-18T03:58:12.022Z,13.98
2023-01-18T04:00:39.639Z,12.70
2023-01-18T04:03:06.861Z,15.05
2023-01-18T04:05:34.032Z,14.13
2023-01-18T04:08:00.416Z,12.88
2023-01-18T04:10:26.994Z,13.45
2023-01-18T04:12:53.495Z,14.05
2023-01-18T04:15:20.297Z,13.10
2023-01-18T04:17:49.672Z,12.93
2023-01-18T04:20:16.331Z,13.90
2023-01-18T04:22:42.771Z,12.65
2023-01-18T04:25:09.450Z,12.30
2023-01-18T04:27:35.894Z,12.38
2023-01-18T04:30:02.389Z,13.02
2023-01-18T04:32:28.918Z,13.75
2023-01-18T04:34:55.338Z,12.45
2023-01-18T04:37:22.114Z,11.73
2023-01-18T04:39:48.511Z,12.20
2023-01-18T04:42:14.880Z,11.35
2023-01-18T04:44:41.276Z,10.48
2023-01-18T04:47:07.641Z,10.32
2023-01-18T04:49:34.056Z,10.73
2023-01-18T04:52:00.450Z,12.10
2023-01-18T04:54:28.091Z,11.32
2023-01-18T04:56:54.548Z,12.93
2023-01-18T04:59:20.955Z,11.48
2023-01-18T05:01:47.367Z,12.45
2023-01-18T05:04:14.582Z,14.13
2023-01-18T05:06:41.037Z,12.77
2023-01-18T05:09:07.510Z,13.10
2023-01-18T05:11:34.017Z,12.98
2023-01-18T05:14:00.451Z,12.18
2023-01-18T05:16:27.331Z,14.35
2023-01-18T05:18:53.831Z,14.73
2023-01-18T05:21:20.280Z,16.02
2023-01-18T05:23:46.673Z,14.68
2023-01-18T05:26:22.580Z,14.10
2023-01-18T05:28:49.868Z,16.05
2023-01-18T05:31:21.331Z,14.30
2023-01-18T05:33:48.463Z,13.82
2023-01-18T05:36:14.857Z,14.00
2023-01-18T05:38:41.298Z,13.45
2023-01-18T05:41:08.107Z,14.35
2023-01-18T05:43:35.805Z,12.82
2023-01-18T05:46:02.329Z,13.55
2023-01-18T05:48:28.730Z,12.32
2023-01-18T05:50:55.193Z,13.00
2023-01-18T05:53:22.479Z,12.02
2023-01-18T05:55:59.794Z,12.35
2023-01-18T05:58:27.213Z,12.52
2023-01-18T06:00:54.087Z,12.57
2023-01-18T06:03:20.972Z,10.25
2023-01-18T06:05:48.611Z,10.07
2023-01-18T06:08:15.790Z,10.32
2023-01-18T06:10:42.195Z,9.57
2023-01-18T06:13:08.578Z,10.15
2023-01-18T06:15:35.375Z,9.23
2023-01-18T06:18:01.870Z,9.50
2023-01-18T06:20:31.690Z,10.15
2023-01-18T06:22:58.599Z,12.23
2023-01-18T06:25:26.034Z,10.65
2023-01-18T06:27:52.642Z,12.18
2023-01-18T06:30:19.460Z,11.40
2023-01-18T06:32:45.869Z,13.80
2023-01-18T06:35:12.288Z,11.50
2023-01-18T06:37:38.763Z,13.45
2023-01-18T06:40:05.908Z,12.95
2023-01-18T06:42:33.069Z,12.38
2023-01-18T06:44:59.678Z,12.18
2023-01-18T06:47:26.085Z,13.57
2023-01-18T06:49:52.464Z,17.02
2023-01-18T06:52:18.864Z,14.77
2023-01-18T06:54:45.229Z,15.90
2023-01-18T06:57:12.278Z,18.33
2023-01-18T06:59:39.668Z,16.98
2023-01-18T07:02:06.324Z,19.15
2023-01-18T07:04:35.487Z,17.95
2023-01-18T07:07:02.100Z,16.75
2023-01-18T07:09:28.626Z,18.85
2023-01-18T07:11:55.058Z,17.38
2023-01-18T07:14:21.480Z,17.50
2023-01-18T07:16:47.910Z,17.40
2023-01-18T07:19:16.275Z,21.05
2023-01-18T07:21:42.719Z,16.65
2023-01-18T07:24:09.157Z,19.92
2023-01-18T07:26:35.537Z,18.67
2023-01-18T07:29:02.030Z,19.25
2023-01-18T07:31:28.501Z,18.65
2023-01-18T07:33:54.966Z,19.00
2023-01-18T07:36:22.941Z,19.95
2023-01-18T07:38:49.441Z,19.15
2023-01-18T07:41:16.970Z,18.88
2023-01-18T07:43:44.727Z,20.58
2023-01-18T07:46:15.273Z,20.10
2023-01-18T07:48:41.788Z,21.60
2023-01-18T07:51:09.944Z,19.27
2023-01-18T07:53:37.563Z,20.83
2023-01-18T07:56:08.274Z,21.52
2023-01-18T07:58:37.431Z,19.73
2023-01-18T08:01:09.530Z,20.17
2023-01-18T08:03:36.882Z,20.33
2023-01-18T08:06:05.539Z,21.08
2023-01-18T08:08:32.063Z,22.88
2023-01-18T08:11:01.255Z,21.63
2023-01-18T08:13:28.067Z,20.60
2023-01-18T08:15:55.726Z,19.58
2023-01-18T08:18:23.609Z,20.77
2023-01-18T08:20:50.205Z,19.40
2023-01-18T08:23:17.262Z,21.15
2023-01-18T08:25:44.316Z,21.13
2023-01-18T08:28:11.714Z,21.15
2023-01-18T08:30:41.151Z,21.50
2023-01-18T08:33:08.189Z,21.97
2023-01-18T08:35:40.756Z,19.50
2023-01-18T08:38:07.409Z,21.13
2023-01-18T08:40:34.054Z,21.90
2023-01-18T08:43:02.402Z,21.35
2023-01-18T08:45:29.613Z,19.95
2023-01-18T08:48:02.402Z,20.05
2023-01-18T08:50:30.177Z,23.10
2023-01-18T08:52:58.429Z,19.67
2023-01-18T08:55:26.660Z,20.73
2023-01-18T08:57:59.307Z,21.20
2023-01-18T09:00:28.511Z,19.77
2023-01-18T09:02:55.264Z,20.85
2023-01-18T09:05:22.574Z,19.65
2023-01-18T09:07:50.808Z,20.45
2023-01-18T09:10:17.326Z,21.42
2023-01-18T09:12:43.687Z,22.38
2023-01-18T09:15:10.413Z,20.27
2023-01-18T09:17:36.834Z,19.67
2023-01-18T09:20:07.596Z,21.27
2023-01-18T09:22:34.044Z,19.73
2023-01-18T09:25:00.410Z,19.02
2023-01-18T09:27:26.802Z,21.90
2023-01-18T09:29:53.216Z,18.95
2023-01-18T09:32:21.304Z,18.30
2023-01-18T09:34:50.767Z,17.73
2023-01-18T09:37:18.047Z,18.47
2023-01-18T09:39:51.753Z,20.20
2023-01-18T09:42:22.468Z,17.77
2023-01-18T09:44:55.243Z,21.55
2023-01-18T09:47:28.568Z,17.90
2023-01-18T09:49:56.495Z,18.13
2023-01-18T09:52:43.821Z,19.58
2023-01-18T09:55:22.513Z,19.17
2023-01-18T09:58:03.723Z,18.33
2023-01-18T10:00:35.005Z,18.30
2023-01-18T10:03:09.153Z,18.35
2023-01-18T10:05:40.468Z,17.98
2023-01-18T10:08:14.722Z,19.75
2023-01-18T10:10:54.037Z,17.25
2023-01-18T10:13:30.202Z,16.92
2023-01-18T10:15:56.606Z,17.73
2023-01-18T10:18:24.325Z,17.83
2023-01-18T10:20:58.499Z,17.60
2023-01-18T10:23:47.340Z,16.58
2023-01-18T10:26:26.305Z,17.75
2023-01-18T10:29:03.466Z,16.45
2023-01-18T10:31:42.159Z,17.38
2023-01-18T10:34:21.462Z,18.45
2023-01-18T10:36:52.866Z,17.15
2023-01-18T10:39:38.500Z,18.52
2023-01-18T10:42:21.839Z,16.73
2023-01-18T10:44:48.264Z,16.60
2023-01-18T10:47:18.387Z,17.08
2023-01-18T10:49:46.648Z,17.15
2023-01-18T10:52:30.815Z,16.52
2023-01-18T10:55:01.237Z,16.67
2023-01-18T11:00:23.583Z,18.02
2023-01-18T11:02:52.029Z,16.40
2023-01-18T11:05:29.119Z,16.73
2023-01-18T11:08:18.854Z,17.15
2023-01-18T11:10:45.356Z,15.80
2023-01-18T11:13:26.395Z,16.50
2023-01-18T11:16:12.874Z,14.80
2023-01-18T11:19:01.525Z,15.75
2023-01-18T11:21:45.588Z,14.77
2023-01-18T11:24:18.542Z,15.00
2023-01-18T11:26:55.953Z,15.35
2023-01-18T11:29:28.507Z,14.15
2023-01-18T11:31:55.934Z,14.85
2023-01-18T11:34:32.434Z,14.82
2023-01-18T11:37:00.738Z,14.68
2023-01-18T11:39:35.848Z,14.88
2023-01-18T11:42:22.840Z,14.35
2023-01-18T11:45:05.407Z,14.15
2023-01-18T11:47:42.851Z,15.27
2023-01-18T11:50:22.183Z,13.55
2023-01-18T11:52:56.784Z,13.73
2023-01-18T11:55:33.361Z,13.80
2023-01-18T11:58:00.805Z,15.07
2023-01-18T12:00:36.748Z,13.55
2023-01-18T12:03:24.982Z,13.25
2023-01-18T12:05:57.925Z,14.88
2023-01-18T12:08:38.235Z,13.40
2023-01-18T12:11:28.401Z,13.38
2023-01-18T12:14:13.437Z,13.80
2023-01-18T12:17:03.752Z,12.35
2023-01-18T12:19:44.836Z,13.15
2023-01-18T12:22:30.059Z,11.82
2023-01-18T12:25:21.372Z,11.77
2023-01-18T12:28:03.017Z,12.25
2023-01-18T12:30:54.909Z,13.20
2023-01-18T12:33:43.429Z,13.57
2023-01-18T12:36:16.324Z,13.50
2023-01-18T12:38:51.513Z,12.98
2023-01-18T12:41:36.274Z,14.23
2023-01-18T12:44:28.812Z,13.95
2023-01-18T12:47:14.163Z,14.63
2023-01-18T12:49:49.324Z,12.02
2023-01-18T12:52:19.580Z,13.23
2023-01-18T12:54:50.220Z,14.38
2023-01-18T12:57:18.414Z,13.88
2023-01-18T12:59:52.828Z,12.23
2023-01-18T13:02:41.132Z,14.88
2023-01-18T13:05:19.070Z,13.27
2023-01-18T13:07:53.809Z,14.38
2023-01-18T13:10:23.555Z,14.02
2023-01-18T13:12:51.960Z,13.82
2023-01-18T13:15:42.569Z,14.10
2023-01-18T13:18:32.201Z,14.18
2023-01-18T13:21:04.636Z,13.93
2023-01-18T13:23:44.375Z,14.10
2023-01-18T13:26:43.364Z,15.02
2023-01-18T13:29:10.125Z,12.82
2023-01-18T13:31:37.852Z,12.35
2023-01-18T13:34:04.711Z,13.88
2023-01-18T13:36:49.232Z,12.43
2023-01-18T13:39:18.668Z,12.55
2023-01-18T13:42:26.421Z,13.45
2023-01-18T13:45:19.383Z,12.20
2023-01-18T13:47:58.651Z,13.23
2023-01-18T13:50:28.281Z,12.88
2023-01-18T13:53:12.950Z,13.77
2023-01-18T13:55:54.682Z,12.35
2023-01-18T13:58:27.962Z,13.93
2023-01-18T14:00:58.462Z,12.57
2023-01-18T14:03:31.607Z,13.45
2023-01-18T14:06:04.828Z,12.88
2023-01-18T14:08:34.253Z,12.98
2023-01-18T14:11:06.119Z,12.95
2023-01-18T14:13:44.868Z,14.77
2023-01-18T14:16:26.520Z,13.15
2023-01-18T14:18:57.251Z,17.25
2023-01-18T14:22:03.121Z,13.45
2023-01-18T14:24:48.233Z,13.10
2023-01-18T14:27:18.257Z,14.73
2023-01-18T14:29:51.307Z,13.57
2023-01-18T14:32:29.618Z,15.13
2023-01-18T14:34:59.106Z,16.90
2023-01-18T14:37:30.686Z,16.37
2023-01-18T14:40:26.690Z,13.95
2023-01-18T14:42:57.337Z,14.57
2023-01-18T14:45:29.856Z,14.73
2023-01-18T14:48:00.537Z,13.07
2023-01-18T14:50:32.731Z,13.18
2023-01-18T14:53:00.180Z,12.85
2023-01-18T14:55:30.727Z,13.38
2023-01-18T15:00:42.942Z,13.45
2023-01-18T15:03:14.563Z,13.55
2023-01-18T15:05:42.107Z,13.90
2023-01-18T15:08:10.642Z,14.13
2023-01-18T15:10:39.162Z,12.88
2023-01-18T15:13:06.513Z,12.55
2023-01-18T15:15:42.280Z,12.35
2023-01-18T15:18:22.634Z,11.82
2023-01-18T15:20:59.210Z,13.68
2023-01-18T15:23:27.063Z,13.68
2023-01-18T15:25:54.889Z,13.07
2023-01-18T15:28:31.314Z,16.08
2023-01-18T15:30:57.843Z,13.88
2023-01-18T15:33:27.106Z,13.38
2023-01-18T15:36:03.744Z,15.82
2023-01-18T15:38:30.473Z,14.25
2023-01-18T15:41:02.383Z,12.85
2023-01-18T15:43:41.042Z,13.30
2023-01-18T15:46:10.638Z,13.20
2023-01-18T15:48:47.062Z,14.63
2023-01-18T15:51:13.952Z,14.75
2023-01-18T15:53:52.400Z,13.98
2023-01-18T15:56:25.296Z,13.95
2023-01-18T15:58:55.687Z,14.63
2023-01-18T16:03:58.668Z,13.43
2023-01-18T16:06:25.938Z,14.10
2023-01-18T16:09:01.087Z,14.18
2023-01-18T16:11:48.090Z,13.15
2023-01-18T16:14:33.039Z,12.43
2023-01-18T16:17:13.952Z,12.77
2023-01-18T16:19:57.697Z,12.63
2023-01-18T16:22:27.023Z,12.75
2023-01-18T16:24:59.929Z,13.68
2023-01-18T16:27:28.708Z,13.35
2023-01-18T16:29:56.747Z,15.00
2023-01-18T16:32:23.090Z,14.18
2023-01-18T16:34:49.716Z,14.88
2023-01-18T16:37:18.072Z,12.55
2023-01-18T16:39:44.713Z,14.23
2023-01-18T16:42:12.001Z,14.63
2023-01-18T16:44:40.363Z,13.77
2023-01-18T16:47:07.040Z,12.77
2023-01-18T16:49:33.442Z,13.48
2023-01-18T16:52:00.041Z,14.15
2023-01-18T16:54:26.515Z,12.70
2023-01-18T16:56:52.912Z,12.25
2023-01-18T16:59:24.610Z,12.77
2023-01-18T17:01:54.391Z,14.57
2023-01-18T17:04:20.868Z,14.90
2023-01-18T17:06:47.246Z,16.90
2023-01-18T17:09:23.243Z,12.05
2023-01-18T17:11:50.300Z,13.00
2023-01-18T17:14:17.312Z,12.88
2023-01-18T17:16:44.961Z,16.42
2023-01-18T17:19:22.747Z,12.80
2023-01-18T17:21:50.392Z,15.05
2023-01-18T17:24:20.447Z,13.05
2023-01-18T17:26:47.096Z,12.80
2023-01-18T17:29:21.260Z,12.93
2023-01-18T17:31:53.164Z,12.32
2023-01-18T17:34:28.082Z,11.45
2023-01-18T17:36:57.271Z,13.15
2023-01-18T17:39:31.841Z,13.02
2023-01-18T17:42:12.250Z,13.10
2023-01-18T17:44:40.988Z,13.88
2023-01-18T17:47:07.751Z,13.50
2023-01-18T17:49:34.335Z,13.90
2023-01-18T17:52:00.813Z,17.08
2023-01-18T17:54:28.506Z,16.80
2023-01-18T17:56:54.971Z,14.95
2023-01-18T17:59:22.177Z,15.02
2023-01-18T18:01:48.623Z,13.82
2023-01-18T18:04:15.148Z,14.27
2023-01-18T18:06:49.793Z,13.68
2023-01-18T18:09:20.338Z,12.77
2023-01-18T18:11:46.719Z,13.05
2023-01-18T18:14:13.207Z,13.57
2023-01-18T18:16:43.499Z,13.57
2023-01-18T18:19:13.064Z,14.52
2023-01-18T18:21:39.421Z,12.73
2023-01-18T18:24:06.099Z,13.55
2023-01-18T18:26:32.508Z,14.15
2023-01-18T18:28:58.868Z,13.10
2023-01-18T18:31:25.257Z,14.27
2023-01-18T18:33:51.666Z,15.85
2023-01-18T18:36:18.043Z,13.18
2023-01-18T18:38:44.440Z,12.02
2023-01-18T18:41:10.898Z,11.73
2023-01-18T18:43:37.279Z,12.48
2023-01-18T18:46:03.746Z,14.55
2023-01-18T18:48:30.309Z,14.95
2023-01-18T18:50:56.702Z,13.35
2023-01-18T18:53:29.649Z,14.57
2023-01-18T18:56:06.744Z,12.43
2023-01-18T18:58:39.524Z,13.73
2023-01-18T19:01:07.759Z,13.02
2023-01-18T19:03:35.301Z,13.35
2023-01-18T19:06:01.781Z,15.95
2023-01-18T19:08:28.215Z,16.75
2023-01-18T19:10:56.064Z,13.90
2023-01-18T19:13:22.444Z,13.15
2023-01-18T19:15:51.222Z,14.52
2023-01-18T19:18:17.692Z,13.10
2023-01-18T19:20:44.045Z,13.75
2023-01-18T19:23:11.503Z,12.27
2023-01-18T19:25:38.738Z,14.38
2023-01-18T19:28:05.166Z,14.57
2023-01-18T19:30:33.192Z,12.85
2023-01-18T19:33:00.254Z,13.32
2023-01-18T19:35:27.177Z,14.02
2023-01-18T19:37:53.823Z,12.95
2023-01-18T19:40:20.931Z,12.88
2023-01-18T19:42:59.561Z,14.55
2023-01-18T19:45:28.599Z,13.13
2023-01-18T19:47:56.826Z,16.75
2023-01-18T19:50:23.592Z,13.80
2023-01-18T19:52:50.320Z,12.75
2023-01-18T19:55:17.047Z,13.25
2023-01-18T19:57:43.596Z,12.52
2023-01-18T20:00:10.729Z,12.57
2023-01-18T20:02:40.862Z,14.10
2023-01-18T20:05:08.171Z,15.60
2023-01-18T20:07:34.556Z,12.82
2023-01-18T20:10:00.995Z,15.52
2023-01-18T20:12:31.189Z,14.63
2023-01-18T20:14:57.850Z,13.35
2023-01-18T20:17:24.333Z,13.02
2023-01-18T20:19:53.965Z,13.77
2023-01-18T20:22:21.269Z,15.10
2023-01-18T20:24:47.755Z,12.38
2023-01-18T20:27:16.764Z,14.43
2023-01-18T20:29:43.688Z,14.20
2023-01-18T20:32:16.138Z,13.43
2023-01-18T20:34:47.418Z,14.18
2023-01-18T20:39:41.055Z,12.80
2023-01-18T20:42:07.553Z,12.93
2023-01-18T20:44:34.326Z,13.25
2023-01-18T20:47:00.853Z,13.52
2023-01-18T20:49:37.308Z,13.85
2023-01-18T20:52:06.633Z,13.25
2023-01-18T20:54:34.769Z,13.95
2023-01-18T20:57:02.124Z,15.05
2023-01-18T20:59:28.565Z,14.82
2023-01-18T21:01:55.125Z,13.88
2023-01-18T21:04:21.752Z,14.35
2023-01-18T21:06:49.704Z,13.90
2023-01-18T21:09:16.624Z,14.85
2023-01-18T21:11:43.186Z,13.90
2023-01-18T21:14:09.744Z,14.27
2023-01-18T21:16:36.685Z,13.15
2023-01-18T21:19:03.166Z,13.63
2023-01-18T21:21:31.732Z,14.07
2023-01-18T21:23:58.489Z,14.93
2023-01-18T21:26:24.999Z,13.57
2023-01-18T21:28:51.368Z,13.07
2023-01-18T21:31:17.979Z,15.35
2023-01-18T21:33:44.411Z,14.10
2023-01-18T21:36:17.351Z,14.18
2023-01-18T21:38:44.073Z,13.23
2023-01-18T21:41:29.114Z,13.60
2023-01-18T21:44:13.956Z,14.90
2023-01-18T21:46:47.907Z,14.43
2023-01-18T21:49:51.898Z,14.13
2023-01-18T21:52:38.942Z,13.25
2023-01-18T21:55:05.661Z,16.08
2023-01-18T21:57:32.021Z,17.35
2023-01-18T21:59:58.424Z,14.65
2023-01-18T22:02:24.969Z,15.82
2023-01-18T22:04:58.957Z,14.80
2023-01-18T22:07:26.658Z,13.77
2023-01-18T22:10:04.091Z,16.67
2023-01-18T22:12:33.410Z,15.10
2023-01-18T22:15:02.166Z,15.15
2023-01-18T22:17:28.862Z,15.85
2023-01-18T22:19:55.351Z,15.60
2023-01-18T22:22:21.801Z,15.57
2023-01-18T22:24:48.163Z,13.82
2023-01-18T22:27:14.607Z,15.50
2023-01-18T22:29:41.001Z,13.95
2023-01-18T22:32:07.424Z,14.82
2023-01-18T22:34:34.026Z,14.98
2023-01-18T22:37:00.631Z,15.27
2023-01-18T22:39:27.045Z,15.35
2023-01-18T22:41:53.425Z,14.25
2023-01-18T22:44:19.892Z,13.85
2023-01-18T22:46:46.631Z,15.02
2023-01-18T22:49:13.066Z,13.65
2023-01-18T22:51:39.707Z,14.40
2023-01-18T22:54:06.299Z,13.85
2023-01-18T22:56:32.928Z,14.68
2023-01-18T22:59:00.460Z,13.45
2023-01-18T23:01:30.533Z,14.73
2023-01-18T23:03:59.691Z,14.85
2023-01-18T23:06:28.083Z,14.02
2023-01-18T23:08:55.961Z,14.52
2023-01-18T23:11:27.068Z,15.43
2023-01-18T23:14:14.653Z,13.90
2023-01-18T23:16:59.921Z,16.73
2023-01-18T23:19:28.761Z,16.15
2023-01-18T23:21:56.212Z,15.40
2023-01-18T23:24:23.175Z,15.70
2023-01-18T23:26:50.115Z,16.95
2023-01-18T23:29:17.190Z,14.40
2023-01-18T23:31:43.804Z,15.00
2023-01-18T23:34:10.467Z,12.70
2023-01-18T23:36:36.905Z,14.85
2023-01-18T23:39:22.008Z,14.77
2023-01-18T23:42:07.002Z,13.85
2023-01-18T23:44:52.042Z,14.02
2023-01-18T23:47:36.936Z,14.65
2023-01-18T23:50:21.712Z,14.32
2023-01-18T23:53:06.541Z,13.15
2023-01-18T23:55:32.989Z,14.63
2023-01-18T23:57:59.720Z,13.63
